Погода Андрадинана неделю

Сан-Паулу, Бразилия

20 - 26 июля
  • 20июля
    Сегодня
    +17°
    +32°
    Ясно и безоблачно
    ВремяПогодаТемператураВлажностьДавлениеВетер, м/сВероятность осадков
    00:00Ясно и безоблачно+20°C46 %737 мм2.9 м/с5 %
    03:00Ясно и безоблачно+19°C52 %737 мм3.0 м/с5 %
    06:00Ясно и безоблачно+17°C56 %737 мм3.5 м/с5 %
    09:00Ясно и безоблачно+20°C49 %738 мм3.2 м/с5 %
    12:00Ясно и безоблачно+29°C33 %739 мм2.5 м/с5 %
    15:00Ясно и безоблачно+31°C25 %736 мм1.7 м/с5 %
    18:00Ясно и безоблачно+27°C38 %735 мм2.3 м/с5 %
    21:00Ясно и безоблачно+23°C41 %736 мм2.7 м/с5 %
  • 21июля
    Воскресенье
    +17°
    +32°
    Ясно и безоблачно
    ВремяПогодаТемператураВлажностьДавлениеВетер, м/сВероятность осадков
    00:00Ясно и безоблачно+20°C45 %736 мм2.7 м/с5 %
    03:00Ясно и безоблачно+18°C54 %735 мм3.2 м/с5 %
    06:00Ясно и безоблачно+18°C44 %735 мм3.9 м/с5 %
    09:00Ясно и безоблачно+20°C46 %737 мм3.5 м/с5 %
    12:00Ясно и безоблачно+28°C34 %737 мм3.1 м/с5 %
    15:00Ясно и безоблачно+31°C27 %735 мм2.9 м/с5 %
    18:00Ясно и безоблачно+29°C33 %735 мм0.9 м/с5 %
    21:00Ясно и безоблачно+27°C37 %736 мм1.1 м/с5 %
  • 22июля
    Понедельник
    +18°
    +32°
    Ясно и безоблачно
    ВремяПогодаТемператураВлажностьДавлениеВетер, м/сВероятность осадков
    00:00Ясно и безоблачно+21°C50 %736 мм3.1 м/с5 %
    03:00Ясно и безоблачно+21°C55 %735 мм3.5 м/с5 %
    06:00Ясно и безоблачно+19°C70 %736 мм3.4 м/с5 %
    09:00Ясно и безоблачно+21°C59 %738 мм2.2 м/с5 %
    12:00Ясно и безоблачно+29°C33 %738 мм2.4 м/с5 %
    15:00Ясно и безоблачно+31°C26 %736 мм1.9 м/с5 %
    18:00Ясно и безоблачно+28°C36 %736 мм2.1 м/с5 %
    21:00Ясно и безоблачно+24°C41 %736 мм2.2 м/с5 %
  • 23июля
    Вторник
    +17°
    +32°
    Небольшая облачность
    ВремяПогодаТемператураВлажностьДавлениеВетер, м/сВероятность осадков
    00:00Ясно и безоблачно+21°C46 %737 мм2.6 м/с5 %
    03:00Ясно и безоблачно+18°C53 %736 мм2.6 м/с5 %
    06:00Ясно и безоблачно+18°C55 %736 мм3.7 м/с5 %
    09:00Ясно и безоблачно+20°C51 %738 мм3.7 м/с5 %
    12:00Ясно и безоблачно+29°C32 %738 мм3.3 м/с5 %
    15:00Небольшая облачность+31°C24 %736 мм2.5 м/с5 %
    18:00Ясно и безоблачно+28°C38 %736 мм2.1 м/с5 %
    21:00Ясно и безоблачно+24°C42 %736 мм2.2 м/с5 %
Мы используем cookies
Соглашаюсь